Preview of NWS' New Version of Forecast
This preview is not operational and should not be used for support decisions.

Terminal Aerodrome Forecast (TAF)

Issued by National Weather Service (NWS)

                            
000
FTUS42 KKEY 131026 AAC
TAFEYW
TAF AMD
KEYW 131026Z 1310/1406 VRB03KT P6SM FEW015
     FM131400 03007KT P6SM SCT015
     FM140000 VRB04KT P6SM FEW015=